createdAt,value
2023-03-11T00:00:02.274Z,96.45
2023-03-11T00:01:02.072Z,96.34
2023-03-11T00:02:03.189Z,96.45
2023-03-11T00:03:02.990Z,96.45
2023-03-11T00:04:02.642Z,96.14
2023-03-11T00:05:02.870Z,96.24
2023-03-11T00:06:02.952Z,95.93
2023-03-11T00:07:03.168Z,96.03
2023-03-11T00:08:02.962Z,95.62
2023-03-11T00:09:03.256Z,95.62
2023-03-11T00:10:02.959Z,95.30
2023-03-11T00:11:03.276Z,95.09
2023-03-11T00:12:03.417Z,95.20
2023-03-11T00:13:03.405Z,95.09
2023-03-11T00:14:03.144Z,95.26
2023-03-11T00:15:03.369Z,95.26
2023-03-11T00:16:03.440Z,95.26
2023-03-11T00:17:02.501Z,94.74
2023-03-11T00:18:02.483Z,94.74
2023-03-11T00:19:02.191Z,94.84
2023-03-11T00:20:02.489Z,95.05
2023-03-11T00:21:02.261Z,94.64
2023-03-11T00:22:02.721Z,94.64
2023-03-11T00:23:03.074Z,94.84
2023-03-11T00:24:02.559Z,94.74
2023-03-11T00:25:02.736Z,94.95
2023-03-11T00:26:02.619Z,94.84
2023-03-11T00:27:02.644Z,94.64
2023-03-11T00:28:02.517Z,94.64
2023-03-11T00:29:02.234Z,94.74
2023-03-11T00:30:02.141Z,94.64
2023-03-11T00:31:02.516Z,94.74
2023-03-11T00:32:02.487Z,93.80
2023-03-11T00:33:02.629Z,93.80
2023-03-11T00:34:02.454Z,94.12
2023-03-11T00:35:02.165Z,94.01
2023-03-11T00:36:02.278Z,93.49
2023-03-11T00:37:03.078Z,93.60
2023-03-11T00:38:02.704Z,93.91
2023-03-11T00:39:03.086Z,94.01
2023-03-11T00:40:03.207Z,94.01
2023-03-11T00:41:02.881Z,93.91
2023-03-11T00:42:03.127Z,93.60
2023-03-11T00:43:02.993Z,93.29
2023-03-11T00:44:03.092Z,92.97
2023-03-11T00:45:03.272Z,92.86
2023-03-11T00:46:02.942Z,92.97
2023-03-11T00:47:02.460Z,93.07
2023-03-11T00:48:02.427Z,92.97
2023-03-11T00:49:02.961Z,93.18
2023-03-11T00:50:02.909Z,93.39
2023-03-11T00:51:02.755Z,93.39
2023-03-11T00:52:02.408Z,93.29
2023-03-11T00:53:02.674Z,93.39
2023-03-11T00:54:02.527Z,93.39
2023-03-11T00:55:02.710Z,93.60
2023-03-11T00:56:02.986Z,93.39
2023-03-11T00:57:02.382Z,93.70
2023-03-11T00:58:02.813Z,93.70
2023-03-11T00:59:02.385Z,93.70
2023-03-11T01:00:02.661Z,93.39
2023-03-11T01:01:02.700Z,93.60
2023-03-11T01:02:02.253Z,93.60
2023-03-11T01:03:02.485Z,93.60
2023-03-11T01:04:02.173Z,94.01
2023-03-11T01:05:01.883Z,93.80
2023-03-11T01:06:01.932Z,94.12
2023-03-11T01:07:02.297Z,94.22
2023-03-11T01:08:02.686Z,94.01
2023-03-11T01:09:02.273Z,94.12
2023-03-11T01:10:02.661Z,94.22
2023-03-11T01:11:02.721Z,94.22
2023-03-11T01:12:02.251Z,94.32
2023-03-11T01:13:02.216Z,94.53
2023-03-11T01:14:01.764Z,94.32
2023-03-11T01:15:01.963Z,94.43
2023-03-11T01:16:02.077Z,94.43
2023-03-11T01:17:02.579Z,94.22
2023-03-11T01:18:02.429Z,94.01
2023-03-11T01:19:02.296Z,94.01
2023-03-11T01:20:02.666Z,94.22
2023-03-11T01:21:02.260Z,94.22
2023-03-11T01:22:01.485Z,93.80
2023-03-11T01:23:01.701Z,93.80
2023-03-11T01:24:01.990Z,94.01
2023-03-11T01:25:01.575Z,94.43
2023-03-11T01:26:01.903Z,94.53
2023-03-11T01:27:02.346Z,94.43
2023-03-11T01:28:02.175Z,93.91
2023-03-11T01:29:02.111Z,93.70
2023-03-11T01:30:02.425Z,93.49
2023-03-11T01:31:02.028Z,93.70
2023-03-11T01:32:01.682Z,94.12
2023-03-11T01:33:01.887Z,93.91
2023-03-11T01:34:01.671Z,93.91
2023-03-11T01:35:01.307Z,93.91
2023-03-11T01:36:01.681Z,93.80
2023-03-11T01:37:01.752Z,93.39
2023-03-11T01:38:02.057Z,93.49
2023-03-11T01:39:02.108Z,93.70
2023-03-11T01:40:01.811Z,93.80
2023-03-11T01:41:02.124Z,93.49
2023-03-11T01:42:01.799Z,93.60
2023-03-11T01:43:02.331Z,93.70
2023-03-11T01:44:02.170Z,93.91
2023-03-11T01:45:02.271Z,94.12
2023-03-11T01:46:01.964Z,94.43
2023-03-11T01:47:02.009Z,94.22
2023-03-11T01:48:02.561Z,94.43
2023-03-11T01:49:02.630Z,94.32
2023-03-11T01:50:02.009Z,94.12
2023-03-11T01:51:02.207Z,93.91
2023-03-11T01:52:02.122Z,93.60
2023-03-11T01:53:02.241Z,93.91
2023-03-11T01:54:02.706Z,94.01
2023-03-11T01:55:02.189Z,94.22
2023-03-11T01:56:02.709Z,94.32
2023-03-11T01:57:01.809Z,94.32
2023-03-11T01:58:01.765Z,94.12
2023-03-11T01:59:01.771Z,94.22
2023-03-11T02:00:02.039Z,94.12
2023-03-11T02:01:01.876Z,94.01
2023-03-11T02:02:02.034Z,93.91
2023-03-11T02:03:02.305Z,93.80
2023-03-11T02:04:02.079Z,93.70
2023-03-11T02:05:02.021Z,93.70
2023-03-11T02:06:01.880Z,93.49
2023-03-11T02:07:02.499Z,93.70
2023-03-11T02:08:02.475Z,94.01
2023-03-11T02:09:02.739Z,94.07
2023-03-11T02:10:02.687Z,93.55
2023-03-11T02:11:02.360Z,93.18
2023-03-11T02:12:02.751Z,93.29
2023-03-11T02:13:02.643Z,93.39
2023-03-11T02:14:02.347Z,93.39
2023-03-11T02:15:02.698Z,93.29
2023-03-11T02:16:03.032Z,93.49
2023-03-11T02:17:02.563Z,93.66
2023-03-11T02:18:02.746Z,93.14
2023-03-11T02:19:03.064Z,93.14
2023-03-11T02:20:02.934Z,93.24
2023-03-11T02:21:02.881Z,92.72
2023-03-11T02:22:02.217Z,92.93
2023-03-11T02:23:02.378Z,92.82
2023-03-11T02:24:02.474Z,92.61
2023-03-11T02:25:01.927Z,92.55
2023-03-11T02:26:02.179Z,92.76
2023-03-11T02:27:02.329Z,92.76
2023-03-11T02:28:02.044Z,92.86
2023-03-11T02:29:01.957Z,92.82
2023-03-11T02:30:02.031Z,92.55
2023-03-11T02:31:02.168Z,92.66
2023-03-11T02:32:02.493Z,92.76
2023-03-11T02:33:02.129Z,92.61
2023-03-11T02:34:02.438Z,92.76
2023-03-11T02:35:02.121Z,92.55
2023-03-11T02:36:02.124Z,93.07
2023-03-11T02:37:02.257Z,93.24
2023-03-11T02:38:01.817Z,93.24
2023-03-11T02:39:02.147Z,92.72
2023-03-11T02:40:02.164Z,92.93
2023-03-11T02:41:01.788Z,93.24
2023-03-11T02:42:02.327Z,93.03
2023-03-11T02:43:02.585Z,92.41
2023-03-11T02:44:02.605Z,92.51
2023-03-11T02:45:02.319Z,92.30
2023-03-11T02:46:02.593Z,92.10
2023-03-11T02:47:02.813Z,92.41
2023-03-11T02:48:02.553Z,92.51
2023-03-11T02:49:02.781Z,92.72
2023-03-11T02:50:02.479Z,92.72
2023-03-11T02:51:02.510Z,92.20
2023-03-11T02:52:01.958Z,91.47
2023-03-11T02:53:02.242Z,91.58
2023-03-11T02:54:01.992Z,91.99
2023-03-11T02:55:02.033Z,91.93
2023-03-11T02:56:01.733Z,92.20
2023-03-11T02:57:02.505Z,91.89
2023-03-11T02:58:02.110Z,92.03
2023-03-11T02:59:02.308Z,92.51
2023-03-11T03:00:02.626Z,92.72
2023-03-11T03:01:02.523Z,92.20
2023-03-11T03:02:03.635Z,92.61
2023-03-11T03:03:03.729Z,92.20
2023-03-11T03:04:03.622Z,91.58
2023-03-11T03:05:03.137Z,91.16
2023-03-11T03:06:03.719Z,90.33
2023-03-11T03:07:02.401Z,90.44
2023-03-11T03:08:02.540Z,90.89
2023-03-11T03:09:02.942Z,91.00
2023-03-11T03:10:02.849Z,91.00
2023-03-11T03:11:02.593Z,91.20
2023-03-11T03:12:02.614Z,90.16
2023-03-11T03:13:02.825Z,90.06
2023-03-11T03:14:02.530Z,89.95
2023-03-11T03:15:03.159Z,90.26
2023-03-11T03:16:02.533Z,90.37
2023-03-11T03:17:03.178Z,90.16
2023-03-11T03:18:03.586Z,90.47
2023-03-11T03:19:03.342Z,90.37
2023-03-11T03:20:03.543Z,90.89
2023-03-11T03:21:03.572Z,89.95
2023-03-11T03:22:02.901Z,89.95
2023-03-11T03:23:02.534Z,89.85
2023-03-11T03:24:02.824Z,89.85
2023-03-11T03:25:02.969Z,89.95
2023-03-11T03:26:02.868Z,89.75
2023-03-11T03:27:03.081Z,90.06
2023-03-11T03:28:03.216Z,90.26
2023-03-11T03:29:02.736Z,90.06
2023-03-11T03:30:03.128Z,90.37
2023-03-11T03:31:03.008Z,90.12
2023-03-11T03:32:03.084Z,90.02
2023-03-11T03:33:03.229Z,89.81
2023-03-11T03:34:02.820Z,88.87
2023-03-11T03:35:02.868Z,89.39
2023-03-11T03:36:03.071Z,89.23
2023-03-11T03:37:03.541Z,89.81
2023-03-11T03:38:03.143Z,89.92
2023-03-11T03:39:03.345Z,89.60
2023-03-11T03:40:03.124Z,89.81
2023-03-11T03:41:03.445Z,90.23
2023-03-11T03:42:03.742Z,89.92
2023-03-11T03:43:03.134Z,89.70
2023-03-11T03:44:03.384Z,88.87
2023-03-11T03:45:03.585Z,89.12
2023-03-11T03:46:03.742Z,89.23
2023-03-11T03:47:02.932Z,89.12
2023-03-11T03:48:02.310Z,88.60
2023-03-11T03:49:02.709Z,89.02
2023-03-11T03:50:02.704Z,88.92
2023-03-11T03:51:02.742Z,89.54
2023-03-11T03:52:02.942Z,89.64
2023-03-11T03:53:03.227Z,89.43
2023-03-11T03:54:02.877Z,89.39
2023-03-11T03:55:02.975Z,88.98
2023-03-11T03:56:02.923Z,88.77
2023-03-11T03:57:02.812Z,89.29
2023-03-11T03:58:03.353Z,89.39
2023-03-11T03:59:03.063Z,89.18
2023-03-11T04:00:02.931Z,89.08
2023-03-11T04:01:02.775Z,88.98
2023-03-11T04:02:02.502Z,88.35
2023-03-11T04:03:02.542Z,88.04
2023-03-11T04:04:02.497Z,87.77
2023-03-11T04:05:02.721Z,88.40
2023-03-11T04:06:02.786Z,89.12
2023-03-11T04:07:02.532Z,89.02
2023-03-11T04:08:02.821Z,88.92
2023-03-11T04:09:02.851Z,88.09
2023-03-11T04:10:02.803Z,88.54
2023-03-11T04:11:02.538Z,87.92
2023-03-11T04:12:02.778Z,87.81
2023-03-11T04:13:02.862Z,88.02
2023-03-11T04:14:02.834Z,88.43
2023-03-11T04:15:02.707Z,88.43
2023-03-11T04:16:02.684Z,88.33
2023-03-11T04:17:01.774Z,88.02
2023-03-11T04:18:02.010Z,87.81
2023-03-11T04:19:01.855Z,87.81
2023-03-11T04:20:02.080Z,88.12
2023-03-11T04:21:01.908Z,88.12
2023-03-11T04:22:02.042Z,87.43
2023-03-11T04:23:02.147Z,87.85
2023-03-11T04:24:02.136Z,88.37
2023-03-11T04:25:02.102Z,88.06
2023-03-11T04:26:02.384Z,88.06
2023-03-11T04:27:02.225Z,88.17
2023-03-11T04:28:02.385Z,87.54
2023-03-11T04:29:02.528Z,87.68
2023-03-11T04:30:02.456Z,88.42
2023-03-11T04:31:02.227Z,88.79
2023-03-11T04:32:02.681Z,88.10
2023-03-11T04:33:02.874Z,88.42
2023-03-11T04:34:03.066Z,88.52
2023-03-11T04:35:03.093Z,88.83
2023-03-11T04:36:03.135Z,88.42
2023-03-11T04:37:02.093Z,88.31
2023-03-11T04:38:02.211Z,88.73
2023-03-11T04:39:02.191Z,88.93
2023-03-11T04:40:02.061Z,88.93
2023-03-11T04:41:02.413Z,88.83
2023-03-11T04:42:04.085Z,89.04
2023-03-11T04:43:02.266Z,88.93
2023-03-11T04:44:02.226Z,88.62
2023-03-11T04:45:02.546Z,88.52
2023-03-11T04:46:02.246Z,88.20
2023-03-11T04:47:01.402Z,88.35
2023-03-11T04:48:01.453Z,89.08
2023-03-11T04:49:02.042Z,89.29
2023-03-11T04:50:01.595Z,89.18
2023-03-11T04:51:01.876Z,89.08
2023-03-11T04:52:01.626Z,89.18
2023-03-11T04:53:01.970Z,89.08
2023-03-11T04:54:02.230Z,88.76
2023-03-11T04:55:01.950Z,88.76
2023-03-11T04:56:01.887Z,88.76
2023-03-11T04:57:02.409Z,88.66
2023-03-11T04:58:02.354Z,88.56
2023-03-11T04:59:02.163Z,88.45
2023-03-11T05:00:02.012Z,88.56
2023-03-11T05:01:02.019Z,88.76
2023-03-11T05:02:02.762Z,89.08
2023-03-11T05:03:02.470Z,88.66
2023-03-11T05:04:03.020Z,89.08
2023-03-11T05:05:02.577Z,89.12
2023-03-11T05:06:02.756Z,89.12
2023-03-11T05:07:02.338Z,89.08
2023-03-11T05:08:02.333Z,88.76
2023-03-11T05:09:02.244Z,88.45
2023-03-11T05:10:01.953Z,88.14
2023-03-11T05:11:02.282Z,88.04
2023-03-11T05:12:02.509Z,88.14
2023-03-11T05:13:02.457Z,87.93
2023-03-11T05:14:02.717Z,87.62
2023-03-11T05:15:02.799Z,87.73
2023-03-11T05:16:02.496Z,87.62
2023-03-11T05:17:02.770Z,87.83
2023-03-11T05:18:02.777Z,87.83
2023-03-11T05:19:03.083Z,87.87
2023-03-11T05:20:03.074Z,87.97
2023-03-11T05:21:02.686Z,87.87
2023-03-11T05:22:02.007Z,87.87
2023-03-11T05:23:02.313Z,87.76
2023-03-11T05:24:01.972Z,87.66
2023-03-11T05:25:01.828Z,87.97
2023-03-11T05:26:01.750Z,88.18
2023-03-11T05:27:02.398Z,88.60
2023-03-11T05:28:02.114Z,88.49
2023-03-11T05:29:01.988Z,88.29
2023-03-11T05:30:02.454Z,88.18
2023-03-11T05:31:02.053Z,88.18
2023-03-11T05:32:02.155Z,88.32
2023-03-11T05:33:02.396Z,88.22
2023-03-11T05:34:02.623Z,88.22
2023-03-11T05:35:02.122Z,88.32
2023-03-11T05:36:02.457Z,88.53
2023-03-11T05:37:03.197Z,88.75
2023-03-11T05:38:02.235Z,88.75
2023-03-11T05:39:02.500Z,89.06
2023-03-11T05:40:02.148Z,89.16
2023-03-11T05:41:02.317Z,89.16
2023-03-11T05:42:02.022Z,88.43
2023-03-11T05:43:01.946Z,88.01
2023-03-11T05:44:01.766Z,87.70
2023-03-11T05:45:02.109Z,87.49
2023-03-11T05:46:01.550Z,87.49
2023-03-11T05:47:02.212Z,87.70
2023-03-11T05:48:01.910Z,87.60
2023-03-11T05:49:02.350Z,87.28
2023-03-11T05:50:01.904Z,87.53
2023-03-11T05:51:03.599Z,87.74
2023-03-11T05:52:03.909Z,87.84
2023-03-11T05:53:03.828Z,88.26
2023-03-11T05:54:04.316Z,88.47
2023-03-11T05:55:03.818Z,88.26
2023-03-11T05:56:04.053Z,88.26
2023-03-11T05:57:04.178Z,88.68
2023-03-11T05:58:04.222Z,88.89
2023-03-11T05:59:04.346Z,89.20
2023-03-11T06:00:04.231Z,89.41
2023-03-11T06:01:04.187Z,89.20
2023-03-11T06:02:04.317Z,89.41
2023-03-11T06:03:03.977Z,89.72
2023-03-11T06:04:03.947Z,89.83
2023-03-11T06:05:06.738Z,90.03
2023-03-11T06:06:03.913Z,90.14
2023-03-11T06:07:04.742Z,90.03
2023-03-11T06:08:04.257Z,89.93
2023-03-11T06:09:04.636Z,90.03
2023-03-11T06:10:04.402Z,90.03
2023-03-11T06:11:04.683Z,90.56
2023-03-11T06:12:04.418Z,90.56
2023-03-11T06:13:04.830Z,89.93
2023-03-11T06:14:04.822Z,89.51
2023-03-11T06:15:04.774Z,89.51
2023-03-11T06:16:04.554Z,89.62
2023-03-11T06:17:03.952Z,89.83
2023-03-11T06:18:03.886Z,89.31
2023-03-11T06:19:02.434Z,90.03
2023-03-11T06:20:01.944Z,90.45
2023-03-11T06:21:02.350Z,89.72
2023-03-11T06:22:03.557Z,89.51
2023-03-11T06:23:03.384Z,89.10
2023-03-11T06:24:04.036Z,88.78
2023-03-11T06:25:03.606Z,88.57
2023-03-11T06:26:03.666Z,88.57
2023-03-11T06:27:04.078Z,88.89
2023-03-11T06:28:04.330Z,88.78
2023-03-11T06:29:04.249Z,88.78
2023-03-11T06:30:04.246Z,88.68
2023-03-11T06:31:04.646Z,88.89
2023-03-11T06:32:04.650Z,89.20
2023-03-11T06:33:04.646Z,89.20
2023-03-11T06:34:04.171Z,89.10
2023-03-11T06:35:04.466Z,89.10
2023-03-11T06:36:04.709Z,89.31
2023-03-11T06:37:04.100Z,89.20
2023-03-11T06:38:04.229Z,89.87
2023-03-11T06:39:04.252Z,89.62
2023-03-11T06:40:03.984Z,89.31
2023-03-11T06:41:04.145Z,89.20
2023-03-11T06:42:03.422Z,89.20
2023-03-11T06:43:03.621Z,89.31
2023-03-11T06:44:03.842Z,89.45
2023-03-11T06:45:03.855Z,89.34
2023-03-11T06:46:03.590Z,89.34
2023-03-11T06:47:03.924Z,89.72
2023-03-11T06:48:04.107Z,89.66
2023-03-11T06:49:03.849Z,89.72
2023-03-11T06:50:04.190Z,89.62
2023-03-11T06:51:04.080Z,89.72
2023-03-11T06:52:03.850Z,89.62
2023-03-11T06:53:03.305Z,89.51
2023-03-11T06:54:03.341Z,89.83
2023-03-11T06:55:03.356Z,90.25
2023-03-11T06:56:03.280Z,90.66
2023-03-11T06:57:04.203Z,90.87
2023-03-11T06:58:03.660Z,90.77
2023-03-11T06:59:03.672Z,90.77
2023-03-11T07:00:03.953Z,90.66
2023-03-11T07:01:03.662Z,90.97
2023-03-11T07:02:04.399Z,91.29
2023-03-11T07:03:04.124Z,91.39
2023-03-11T07:04:04.393Z,91.66
2023-03-11T07:05:03.907Z,91.66
2023-03-11T07:06:03.594Z,91.77
2023-03-11T07:07:01.838Z,91.77
2023-03-11T07:08:02.060Z,91.87
2023-03-11T07:09:01.836Z,92.08
2023-03-11T07:10:02.335Z,91.97
2023-03-11T07:11:02.258Z,92.08
2023-03-11T07:12:02.568Z,91.97
2023-03-11T07:13:02.128Z,91.93
2023-03-11T07:14:02.084Z,91.66
2023-03-11T07:15:02.556Z,91.77
2023-03-11T07:16:02.054Z,91.97
2023-03-11T07:17:02.601Z,92.18
2023-03-11T07:18:02.615Z,92.03
2023-03-11T07:19:02.784Z,92.03
2023-03-11T07:20:02.540Z,91.62
2023-03-11T07:21:02.874Z,91.72
2023-03-11T07:22:02.520Z,91.52
2023-03-11T07:23:02.176Z,91.37
2023-03-11T07:24:02.549Z,91.16
2023-03-11T07:25:02.354Z,91.06
2023-03-11T07:26:02.524Z,91.16
2023-03-11T07:27:02.509Z,91.06
2023-03-11T07:28:02.758Z,91.16
2023-03-11T07:29:02.606Z,90.95
2023-03-11T07:30:02.647Z,91.06
2023-03-11T07:31:02.441Z,91.47
2023-03-11T07:32:02.415Z,91.16
2023-03-11T07:33:02.293Z,90.81
2023-03-11T07:34:02.285Z,90.50
2023-03-11T07:35:02.262Z,90.60
2023-03-11T07:36:02.156Z,90.39
2023-03-11T07:37:02.263Z,90.50
2023-03-11T07:38:02.264Z,90.19
2023-03-11T07:39:04.251Z,89.98
2023-03-11T07:40:02.377Z,90.29
2023-03-11T07:41:02.062Z,90.39
2023-03-11T07:42:02.838Z,90.08
2023-03-11T07:43:02.654Z,89.66
2023-03-11T07:44:03.026Z,90.19
2023-03-11T07:45:02.768Z,89.83
2023-03-11T07:46:02.924Z,89.52
2023-03-11T07:47:02.010Z,90.04
2023-03-11T07:48:01.941Z,90.35
2023-03-11T07:49:02.315Z,90.04
2023-03-11T07:50:02.297Z,89.79
2023-03-11T07:51:01.906Z,89.89
2023-03-11T07:52:01.952Z,89.27
2023-03-11T07:53:01.737Z,89.27
2023-03-11T07:54:02.260Z,89.17
2023-03-11T07:55:02.226Z,89.06
2023-03-11T07:56:01.774Z,88.96
2023-03-11T07:57:02.378Z,88.64
2023-03-11T07:58:02.451Z,88.54
2023-03-11T07:59:02.336Z,88.75
2023-03-11T08:00:02.521Z,88.75
2023-03-11T08:01:02.253Z,88.85
2023-03-11T08:02:02.581Z,88.54
2023-03-11T08:03:02.678Z,88.54
2023-03-11T08:04:02.619Z,88.50
2023-03-11T08:05:02.536Z,88.40
2023-03-11T08:06:02.912Z,88.19
2023-03-11T08:07:02.725Z,87.98
2023-03-11T08:08:02.732Z,88.40
2023-03-11T08:09:02.553Z,88.71
2023-03-11T08:10:02.552Z,88.56
2023-03-11T08:11:02.998Z,88.15
2023-03-11T08:12:03.294Z,88.35
2023-03-11T08:13:03.657Z,89.08
2023-03-11T08:14:03.684Z,89.36
2023-03-11T08:15:03.480Z,89.46
2023-03-11T08:16:03.489Z,89.36
2023-03-11T08:17:02.821Z,87.27
2023-03-11T08:18:02.721Z,86.61
2023-03-11T08:19:02.884Z,86.41
2023-03-11T08:20:02.714Z,86.19
2023-03-11T08:21:02.905Z,86.88
2023-03-11T08:22:02.653Z,86.68
2023-03-11T08:23:02.473Z,86.57
2023-03-11T08:24:04.463Z,86.54
2023-03-11T08:25:02.463Z,85.08
2023-03-11T08:26:02.280Z,82.39
2023-03-11T08:27:02.607Z,83.17
2023-03-11T08:28:02.711Z,82.97
2023-03-11T08:29:02.701Z,82.86
2023-03-11T08:30:02.620Z,82.14
2023-03-11T08:31:02.443Z,83.69
2023-03-11T08:32:02.831Z,82.93
2023-03-11T08:33:02.935Z,83.03
2023-03-11T08:34:02.725Z,83.00
2023-03-11T08:35:02.857Z,80.92
2023-03-11T08:36:02.599Z,78.96
2023-03-11T08:37:02.953Z,79.27
2023-03-11T08:38:02.876Z,80.71
2023-03-11T08:39:03.380Z,81.44
2023-03-11T08:40:03.105Z,79.06
2023-03-11T08:41:03.515Z,80.68
2023-03-11T08:42:02.819Z,79.95
2023-03-11T08:43:02.546Z,79.33
2023-03-11T08:44:02.461Z,77.57
2023-03-11T08:45:02.262Z,78.57
2023-03-11T08:46:02.517Z,79.30
2023-03-11T08:47:03.263Z,80.29
2023-03-11T08:48:02.902Z,80.19
2023-03-11T08:49:03.211Z,78.85
2023-03-11T08:50:03.131Z,78.50
2023-03-11T08:51:02.938Z,78.81
2023-03-11T08:52:03.279Z,79.29
2023-03-11T08:53:02.937Z,78.88
2023-03-11T08:54:02.983Z,74.84
2023-03-11T08:55:03.264Z,77.53
2023-03-11T08:56:02.978Z,77.81
2023-03-11T08:57:02.557Z,78.32
2023-03-11T08:58:02.509Z,77.50
2023-03-11T08:59:02.952Z,76.67
2023-03-11T09:00:02.914Z,76.53
2023-03-11T09:01:02.911Z,74.46
2023-03-11T09:02:02.322Z,75.39
2023-03-11T09:03:02.714Z,76.12
2023-03-11T09:04:02.301Z,75.29
2023-03-11T09:05:02.071Z,71.37
2023-03-11T09:06:02.372Z,72.30
2023-03-11T09:07:02.273Z,70.95
2023-03-11T09:08:03.310Z,71.98
2023-03-11T09:09:01.747Z,71.37
2023-03-11T09:10:01.972Z,69.61
2023-03-11T09:11:01.969Z,70.40
2023-03-11T09:12:02.370Z,70.30
2023-03-11T09:13:01.987Z,70.61
2023-03-11T09:14:01.968Z,70.06
2023-03-11T09:15:02.246Z,69.44
2023-03-11T09:16:02.093Z,68.51
2023-03-11T09:17:03.082Z,68.41
2023-03-11T09:18:03.171Z,68.00
2023-03-11T09:19:02.744Z,69.85
2023-03-11T09:20:02.567Z,69.34
2023-03-11T09:21:03.049Z,70.13
2023-03-11T09:22:02.584Z,71.78
2023-03-11T09:23:02.433Z,68.90
2023-03-11T09:24:02.580Z,64.56
2023-03-11T09:25:02.367Z,63.95
2023-03-11T09:26:01.962Z,59.82
2023-03-11T09:27:03.035Z,61.08
2023-03-11T09:28:02.602Z,64.80
2023-03-11T09:29:02.586Z,66.45
2023-03-11T09:30:02.472Z,68.48
2023-03-11T09:31:02.792Z,67.35
2023-03-11T09:32:03.132Z,67.76
2023-03-11T09:33:02.801Z,66.83
2023-03-11T09:34:02.669Z,64.32
2023-03-11T09:35:03.118Z,62.19
2023-03-11T09:36:02.531Z,64.43
2023-03-11T09:37:01.972Z,62.06
2023-03-11T09:38:02.589Z,62.16
2023-03-11T09:39:02.123Z,65.46
2023-03-11T09:40:02.295Z,64.29
2023-03-11T09:41:02.252Z,63.89
2023-03-11T09:42:02.118Z,65.22
2023-03-11T09:43:02.665Z,64.19
2023-03-11T09:44:02.313Z,63.27
2023-03-11T09:45:02.248Z,65.02
2023-03-11T09:46:02.106Z,64.71
2023-03-11T09:47:01.770Z,63.85
2023-03-11T09:48:02.105Z,64.99
2023-03-11T09:49:02.050Z,65.92
2023-03-11T09:50:01.870Z,64.24
2023-03-11T09:51:01.645Z,61.98
2023-03-11T09:52:02.251Z,60.97
2023-03-11T09:53:02.223Z,60.46
2023-03-11T09:54:02.324Z,59.42
2023-03-11T09:55:02.370Z,60.66
2023-03-11T09:56:02.244Z,59.94
2023-03-11T09:57:01.790Z,63.96
2023-03-11T09:58:02.236Z,62.52
2023-03-11T09:59:01.835Z,62.79
2023-03-11T10:00:02.159Z,63.31
2023-03-11T10:01:01.720Z,61.07
2023-03-11T10:02:02.994Z,59.12
2023-03-11T10:03:03.003Z,60.56
2023-03-11T10:04:02.752Z,61.52
2023-03-11T10:05:03.124Z,63.06
2023-03-11T10:06:02.971Z,62.03
2023-03-11T10:07:02.068Z,59.56
2023-03-11T10:08:02.443Z,57.91
2023-03-11T10:09:02.035Z,60.51
2023-03-11T10:10:01.960Z,57.73
2023-03-11T10:11:02.447Z,57.83
2023-03-11T10:12:02.114Z,56.49
2023-03-11T10:13:02.556Z,60.61
2023-03-11T10:14:02.469Z,63.57
2023-03-11T10:15:02.129Z,58.63
2023-03-11T10:16:02.055Z,58.11
2023-03-11T10:17:02.270Z,61.69
2023-03-11T10:18:02.812Z,63.72
2023-03-11T10:19:02.330Z,60.61
2023-03-11T10:20:02.205Z,55.57
2023-03-11T10:21:02.581Z,55.36
2023-03-11T10:22:02.651Z,55.77
2023-03-11T10:23:03.219Z,56.08
2023-03-11T10:24:02.855Z,57.90
2023-03-11T10:25:02.613Z,57.08
2023-03-11T10:26:03.124Z,58.29
2023-03-11T10:27:02.317Z,62.27
2023-03-11T10:28:02.432Z,63.37
2023-03-11T10:29:02.189Z,59.85
2023-03-11T10:30:02.723Z,61.87
2023-03-11T10:31:02.179Z,60.85
2023-03-11T10:32:03.092Z,58.77
2023-03-11T10:33:02.816Z,60.31
2023-03-11T10:34:03.298Z,58.54
2023-03-11T10:35:02.889Z,58.74
2023-03-11T10:36:03.412Z,57.92
2023-03-11T10:37:02.623Z,57.41
2023-03-11T10:38:02.537Z,55.69
2023-03-11T10:39:02.915Z,56.20
2023-03-11T10:40:02.862Z,57.77
2023-03-11T10:41:02.635Z,57.46
2023-03-11T10:42:02.731Z,58.07
2023-03-11T10:43:02.911Z,56.56
2023-03-11T10:44:02.791Z,58.72
2023-03-11T10:45:02.466Z,59.54
2023-03-11T10:46:02.997Z,57.39
2023-03-11T10:47:02.330Z,59.03
2023-03-11T10:48:02.078Z,58.00
2023-03-11T10:49:02.421Z,54.85
2023-03-11T10:50:02.276Z,57.41
2023-03-11T10:51:02.327Z,57.54
2023-03-11T10:52:02.343Z,56.10
2023-03-11T10:53:02.293Z,56.44
2023-03-11T10:54:02.189Z,59.22
2023-03-11T10:55:02.061Z,59.83
2023-03-11T10:56:02.346Z,59.11
2023-03-11T10:57:02.829Z,57.98
2023-03-11T10:58:02.778Z,56.95
2023-03-11T10:59:02.651Z,55.33
2023-03-11T11:00:02.707Z,55.57
2023-03-11T11:01:03.257Z,55.77
2023-03-11T11:02:02.027Z,56.72
2023-03-11T11:03:01.970Z,56.72
2023-03-11T11:04:01.995Z,58.06
2023-03-11T11:05:02.018Z,56.70
2023-03-11T11:06:01.877Z,58.45
2023-03-11T11:07:02.267Z,57.82
2023-03-11T11:08:02.403Z,56.18
2023-03-11T11:09:02.303Z,57.01
2023-03-11T11:10:02.195Z,57.73
2023-03-11T11:11:01.976Z,59.58
2023-03-11T11:12:02.489Z,59.03
2023-03-11T11:13:02.749Z,58.70
2023-03-11T11:14:02.527Z,58.59
2023-03-11T11:15:02.185Z,57.67
2023-03-11T11:16:02.818Z,56.95
2023-03-11T11:17:02.182Z,60.11
2023-03-11T11:18:01.754Z,60.49
2023-03-11T11:19:02.256Z,58.34
2023-03-11T11:20:01.849Z,58.44
2023-03-11T11:21:02.162Z,57.62
2023-03-11T11:22:02.638Z,57.41
2023-03-11T11:23:02.581Z,57.10
2023-03-11T11:24:02.630Z,57.03
2023-03-11T11:25:02.595Z,57.13
2023-03-11T11:26:02.559Z,56.00
2023-03-11T11:27:02.799Z,57.13
2023-03-11T11:28:02.615Z,58.36
2023-03-11T11:29:02.812Z,58.16
2023-03-11T11:30:02.574Z,57.85
2023-03-11T11:31:02.562Z,58.87
2023-03-11T11:32:02.145Z,59.29
2023-03-11T11:33:01.717Z,59.77
2023-03-11T11:34:02.349Z,58.64
2023-03-11T11:35:02.370Z,59.57
2023-03-11T11:36:01.789Z,57.90
2023-03-11T11:37:02.709Z,54.00
2023-03-11T11:38:02.280Z,54.00
2023-03-11T11:39:02.483Z,54.30
2023-03-11T11:40:02.696Z,54.30
2023-03-11T11:41:02.401Z,55.13
2023-03-11T11:42:01.856Z,55.13
2023-03-11T11:43:01.691Z,56.77
2023-03-11T11:44:01.562Z,56.67
2023-03-11T11:45:01.416Z,55.95
2023-03-11T11:46:02.055Z,58.03
2023-03-11T11:47:03.846Z,57.39
2023-03-11T11:48:02.286Z,55.43
2023-03-11T11:49:02.092Z,55.02
2023-03-11T11:50:01.985Z,53.69
2023-03-11T11:51:02.081Z,52.69
2023-03-11T11:52:02.573Z,54.10
2023-03-11T11:53:02.454Z,55.23
2023-03-11T11:54:02.234Z,55.95
2023-03-11T11:55:02.042Z,56.98
2023-03-11T11:56:02.149Z,55.23
2023-03-11T11:57:02.290Z,54.90
2023-03-11T11:58:01.858Z,56.13
2023-03-11T11:59:01.758Z,56.74
2023-03-11T12:00:02.331Z,54.51
2023-03-11T12:01:02.104Z,54.21
2023-03-11T12:02:02.721Z,55.36
2023-03-11T12:03:02.423Z,55.15
2023-03-11T12:04:02.357Z,57.31
2023-03-11T12:05:02.766Z,56.70
2023-03-11T12:06:02.279Z,57.00
2023-03-11T12:07:02.214Z,58.95
2023-03-11T12:08:02.206Z,56.18
2023-03-11T12:09:02.239Z,53.51
2023-03-11T12:10:12.884Z,53.61
2023-03-11T12:11:01.917Z,55.26
2023-03-11T12:12:02.733Z,56.08
2023-03-11T12:13:02.117Z,56.08
2023-03-11T12:14:02.123Z,55.36
2023-03-11T12:15:02.651Z,55.66
2023-03-11T12:16:02.422Z,56.59
2023-03-11T12:17:03.651Z,57.51
2023-03-11T12:18:01.741Z,57.00
2023-03-11T12:19:01.791Z,56.67
2023-03-11T12:20:01.844Z,56.67
2023-03-11T12:21:01.627Z,56.46
2023-03-11T12:22:01.601Z,58.41
2023-03-11T12:23:02.211Z,57.39
2023-03-11T12:24:01.830Z,56.15
2023-03-11T12:25:02.146Z,56.36
2023-03-11T12:26:01.619Z,56.15
2023-03-11T12:27:01.587Z,57.21
2023-03-11T12:28:01.876Z,57.90
2023-03-11T12:29:01.918Z,57.49
2023-03-11T12:30:01.822Z,56.05
2023-03-11T12:31:01.670Z,56.26
2023-03-11T12:32:01.821Z,56.56
2023-03-11T12:33:02.046Z,56.87
2023-03-11T12:34:01.906Z,56.98
2023-03-11T12:35:02.209Z,58.51
2023-03-11T12:36:02.335Z,58.11
2023-03-11T12:37:02.044Z,57.56
2023-03-11T12:38:02.751Z,57.46
2023-03-11T12:39:02.291Z,57.26
2023-03-11T12:40:02.483Z,56.23
2023-03-11T12:41:02.476Z,55.82
2023-03-11T12:42:02.391Z,57.03
2023-03-11T12:43:01.950Z,55.08
2023-03-11T12:44:01.785Z,54.77
2023-03-11T12:45:01.615Z,54.49
2023-03-11T12:46:02.043Z,54.38
2023-03-11T12:47:01.823Z,54.38
2023-03-11T12:48:02.469Z,54.72
2023-03-11T12:49:02.151Z,54.82
2023-03-11T12:50:02.220Z,55.33
2023-03-11T12:51:02.345Z,55.13
2023-03-11T12:52:02.170Z,57.08